KFET/FET METAR and TAF weather

Enter ICAO airport designator
Station Type Date Time Source
KFET METAR 2018/12/15 20:15 UTC NOAA

KFET 152015Z AUTO 18006KT 10SM CLR 09/M02 A3009 RMK AO2 T00911021


Station Type Date Time Source
KFET Decoded METAR 2018/12/15 20:15 UTC NOAA

Fremont Municipal Airport, NE, United States (KFET) 41-27N 096-31W
Dec 15, 2018 - 03:15 PM EST / 2018.12.15 2015 UTC
Wind: from the S (180 degrees) at 7 MPH (6 KT):0
Visibility: 10 mile(s):0
Sky conditions: clear
Temperature: 48.4 F (9.1 C)
Dew Point: 28.2 F (-2.1 C)
Relative Humidity: 45%
Pressure (altimeter): 30.09 in. Hg (1018 hPa)
ob: KFET 152015Z AUTO 18006KT 10SM CLR 09/M02 A3009 RMK AO2 T00911021
cycle: 20

Station Type Date Time Source
KFET TAF UTC NOAA

Error!


Example: see airport list